Time;durP1;ratioP1;P1;durP2;ratioP2;P2;SDS_P1;SDS_P2;PMS_P1;PMS_P2;Temp;Humidity;BMP_temperature;BMP_pressure;BME280_temperature;BME280_humidity;BME280_pressure;Samples;Min_cycle;Max_cycle;Signal;HPM_P1;HPM_P2
2021/06/12 00:01:11;;;;;;;1.90;1.63;;;21.00;99.90;;;;;;5137599;27;20402;-75
2021/06/12 00:03:37;;;;;;;1.80;1.70;;;21.00;99.90;;;;;;5136330;27;20418;-75
2021/06/12 00:06:05;;;;;;;2.25;2.05;;;21.00;99.90;;;;;;5137462;27;20513;-75
2021/06/12 00:08:31;;;;;;;2.90;2.70;;;20.90;99.90;;;;;;5137157;27;20426;-75
2021/06/12 00:11:00;;;;;;;2.37;2.17;;;20.80;99.90;;;;;;5137079;27;20421;-75
2021/06/12 00:13:27;;;;;;;3.90;2.00;;;20.70;99.90;;;;;;5136593;27;20430;-75
2021/06/12 00:15:55;;;;;;;2.38;2.17;;;20.60;99.90;;;;;;5136083;27;20505;-75
2021/06/12 00:18:22;;;;;;;2.47;2.28;;;20.50;99.90;;;;;;5136120;27;20434;-75
2021/06/12 00:20:48;;;;;;;2.60;2.40;;;20.50;99.90;;;;;;5136663;27;20892;-74
2021/06/12 00:23:16;;;;;;;2.60;2.40;;;20.40;99.90;;;;;;5135395;27;20426;-75
2021/06/12 00:25:43;;;;;;;2.70;2.30;;;20.40;99.90;;;;;;5136435;28;20427;-76
2021/06/12 00:28:12;;;;;;;2.70;2.50;;;20.40;99.90;;;;;;5137386;28;20448;-75
2021/06/12 00:30:39;;;;;;;2.40;1.98;;;20.40;99.90;;;;;;5137328;28;20963;-76
2021/06/12 00:33:07;;;;;;;2.63;2.10;;;20.50;99.90;;;;;;5137303;27;20430;-76
2021/06/12 00:35:33;;;;;;;2.50;2.22;;;20.50;99.90;;;;;;5136890;28;20446;-75
2021/06/12 00:38:00;;;;;;;2.20;2.00;;;20.60;99.90;;;;;;5136781;28;20434;-74
2021/06/12 00:40:26;;;;;;;2.65;2.45;;;20.60;99.90;;;;;;5136516;28;20419;-75
2021/06/12 00:42:54;;;;;;;3.35;3.05;;;20.60;99.90;;;;;;5136592;28;20722;-76
2021/06/12 00:45:22;;;;;;;3.50;3.20;;;20.60;99.90;;;;;;5135725;28;20426;-76
2021/06/12 00:47:51;;;;;;;3.70;3.40;;;20.60;99.90;;;;;;5136245;28;20876;-75
2021/06/12 00:50:21;;;;;;;3.47;3.28;;;20.50;99.90;;;;;;5136197;28;20722;-75
2021/06/12 00:52:47;;;;;;;3.10;2.80;;;20.40;99.90;;;;;;5135258;28;20426;-75
2021/06/12 00:55:15;;;;;;;3.00;2.80;;;20.40;99.90;;;;;;5135833;28;20906;-75
2021/06/12 00:57:43;;;;;;;3.05;2.85;;;20.50;99.90;;;;;;5135518;28;20425;-74
2021/06/12 01:00:13;;;;;;;2.78;2.58;;;20.50;99.90;;;;;;5136308;28;20776;-75
2021/06/12 01:02:40;;;;;;;2.83;2.63;;;20.60;99.90;;;;;;5136360;28;20410;-75
2021/06/12 01:05:12;;;;;;;2.85;2.65;;;20.60;99.90;;;;;;5136912;28;20905;-75
2021/06/12 01:07:40;;;;;;;3.08;2.88;;;20.60;99.90;;;;;;5136507;28;20513;-74
2021/06/12 01:10:09;;;;;;;2.97;2.78;;;20.60;99.90;;;;;;5136978;28;20426;-75
2021/06/12 01:12:44;;;;;;;2.63;2.42;;;20.60;99.90;;;;;;5136893;28;20423;-75
2021/06/12 01:15:11;;;;;;;3.17;2.65;;;20.40;99.90;;;;;;5137222;28;20714;-74
2021/06/12 01:17:46;;;;;;;3.78;3.47;;;20.40;99.90;;;;;;5136683;27;20466;-74
2021/06/12 01:20:37;;;;;;;3.40;3.20;;;20.40;99.90;;;;;;5136723;28;20467;-76
2021/06/12 01:23:25;;;;;;;3.20;2.90;;;20.40;99.90;;;;;;5137505;28;20912;-76
2021/06/12 01:26:02;;;;;;;3.25;2.97;;;20.40;99.90;;;;;;5137427;28;20500;-76
2021/06/12 01:28:58;;;;;;;2.90;2.70;;;20.40;99.90;;;;;;5137157;28;20449;-75
2021/06/12 01:31:28;;;;;;;2.80;2.60;;;20.40;99.90;;;;;;5135763;27;20540;-75
2021/06/12 01:33:56;;;;;;;3.50;3.10;;;20.40;99.90;;;;;;5136330;27;20508;-74
2021/06/12 01:36:24;;;;;;;3.38;3.08;;;20.40;99.90;;;;;;5140954;27;20499;-75
2021/06/12 01:38:55;;;;;;;2.78;2.58;;;20.40;99.90;;;;;;5141092;27;20433;-75
2021/06/12 01:41:22;;;;;;;3.75;3.38;;;20.40;99.90;;;;;;5140675;27;20757;-74
2021/06/12 01:43:51;;;;;;;3.60;3.30;;;20.30;99.90;;;;;;5139758;27;20741;-75
2021/06/12 01:46:19;;;;;;;2.60;2.40;;;20.30;99.90;;;;;;5140974;27;20423;-74
2021/06/12 01:48:51;;;;;;;3.20;2.90;;;20.30;99.90;;;;;;5141028;27;20423;-75
2021/06/12 01:51:18;;;;;;;3.20;2.90;;;20.30;99.90;;;;;;5141255;27;20399;-74
2021/06/12 01:53:47;;;;;;;2.70;2.50;;;20.20;99.90;;;;;;5139945;27;20476;-74
2021/06/12 01:56:14;;;;;;;3.30;3.00;;;20.20;99.90;;;;;;5140536;27;20856;-75
2021/06/12 01:58:44;;;;;;;3.35;3.15;;;20.20;99.90;;;;;;5141265;27;20483;-74
2021/06/12 02:01:13;;;;;;;2.63;2.42;;;20.20;99.90;;;;;;5139962;27;20410;-75
2021/06/12 02:03:41;;;;;;;2.90;2.70;;;20.10;99.90;;;;;;5140101;27;20834;-75
2021/06/12 02:06:11;;;;;;;2.70;2.50;;;20.10;99.90;;;;;;5140325;27;20504;-75
2021/06/12 02:08:41;;;;;;;2.67;2.47;;;20.10;99.90;;;;;;5139956;27;20434;-75
2021/06/12 02:11:08;;;;;;;3.10;2.90;;;20.00;99.90;;;;;;5139300;27;20446;-75
2021/06/12 02:13:37;;;;;;;2.92;2.72;;;19.90;99.90;;;;;;5140042;27;20423;-75
2021/06/12 02:16:05;;;;;;;3.35;3.05;;;19.90;99.90;;;;;;5139588;27;20813;-76
2021/06/12 02:18:33;;;;;;;3.10;2.80;;;19.90;99.90;;;;;;5139637;27;20861;-75
2021/06/12 02:21:00;;;;;;;3.03;2.83;;;19.90;99.90;;;;;;5139332;27;20458;-76
2021/06/12 02:23:30;;;;;;;3.50;3.20;;;19.90;99.90;;;;;;5138716;27;20422;-76
2021/06/12 02:25:58;;;;;;;2.90;2.70;;;19.90;99.90;;;;;;5139504;27;20430;-76
2021/06/12 02:28:33;;;;;;;2.95;2.75;;;19.90;99.90;;;;;;5138979;27;20417;-76
2021/06/12 02:31:03;;;;;;;3.58;3.28;;;19.90;99.90;;;;;;5138932;27;20429;-76
2021/06/12 02:33:31;;;;;;;3.70;3.40;;;19.90;99.90;;;;;;5139141;27;20477;-76
2021/06/12 02:36:01;;;;;;;3.15;2.85;;;19.80;99.90;;;;;;5139051;27;20414;-76
2021/06/12 02:38:29;;;;;;;3.20;3.00;;;19.80;99.90;;;;;;5138753;27;20414;-76
2021/06/12 02:40:57;;;;;;;2.80;2.60;;;19.80;99.90;;;;;;5138612;27;20406;-76
2021/06/12 02:43:23;;;;;;;3.05;2.85;;;19.80;99.90;;;;;;5139271;27;20431;-76
2021/06/12 02:45:50;;;;;;;3.53;3.33;;;19.80;99.90;;;;;;5138885;27;20427;-76
2021/06/12 02:48:19;;;;;;;2.92;2.72;;;19.70;99.90;;;;;;5139067;27;20940;-76
2021/06/12 02:50:47;;;;;;;2.90;2.70;;;19.80;99.90;;;;;;5138610;27;20418;-76
2021/06/12 02:53:17;;;;;;;3.88;3.58;;;19.80;99.90;;;;;;5137981;27;20898;-76
2021/06/12 02:55:50;;;;;;;3.00;2.80;;;19.90;99.90;;;;;;5138330;27;20414;-76
2021/06/12 02:58:24;;;;;;;3.20;2.67;;;19.80;99.90;;;;;;5137549;27;20709;-77
2021/06/12 03:00:55;;;;;;;3.30;3.10;;;19.80;99.90;;;;;;5138696;27;20419;-75
2021/06/12 03:03:22;;;;;;;3.65;3.35;;;19.70;99.90;;;;;;5138812;27;20414;-75
2021/06/12 03:05:55;;;;;;;3.95;3.65;;;19.70;99.90;;;;;;5138650;27;20419;-76
2021/06/12 03:08:24;;;;;;;2.83;2.63;;;19.70;99.90;;;;;;5138911;27;20474;-76
2021/06/12 03:10:53;;;;;;;3.70;3.40;;;19.60;99.90;;;;;;5138343;27;20481;-76
2021/06/12 03:13:24;;;;;;;3.30;3.10;;;19.50;99.90;;;;;;5138068;27;20454;-76
2021/06/12 03:15:53;;;;;;;3.85;3.55;;;19.50;99.90;;;;;;5137930;27;20468;-75
2021/06/12 03:18:20;;;;;;;3.53;3.22;;;19.40;99.90;;;;;;5138383;27;20430;-74
2021/06/12 03:20:48;;;;;;;3.00;2.80;;;19.40;99.90;;;;;;5138341;27;20403;-76
2021/06/12 03:23:17;;;;;;;3.70;3.40;;;19.40;99.90;;;;;;5138268;27;20854;-76
2021/06/12 03:25:45;;;;;;;3.85;3.55;;;19.40;99.90;;;;;;5137680;27;20426;-73
2021/06/12 03:28:13;;;;;;;3.50;3.20;;;19.40;99.90;;;;;;5137508;27;20486;-74
2021/06/12 03:30:40;;;;;;;3.85;3.03;;;19.40;99.90;;;;;;5137212;27;20701;-75
2021/06/12 03:33:08;;;;;;;3.35;2.90;;;19.40;99.90;;;;;;5137035;27;20418;-75
2021/06/12 03:35:36;;;;;;;3.80;3.50;;;19.40;99.90;;;;;;5136735;27;20833;-75
2021/06/12 03:38:03;;;;;;;3.50;3.25;;;19.40;99.90;;;;;;5137275;27;20426;-75
2021/06/12 03:40:29;;;;;;;3.38;3.17;;;19.40;99.90;;;;;;5137887;27;20419;-74
2021/06/12 03:42:57;;;;;;;3.10;2.80;;;19.40;99.90;;;;;;5138566;27;20822;-75
2021/06/12 03:45:25;;;;;;;3.15;2.40;;;19.40;99.90;;;;;;5137962;27;20837;-75
2021/06/12 03:47:53;;;;;;;3.50;3.20;;;19.30;99.90;;;;;;5137643;27;20825;-74
2021/06/12 03:50:21;;;;;;;3.38;3.08;;;19.30;99.90;;;;;;5137679;27;20417;-74
2021/06/12 03:52:50;;;;;;;4.40;4.00;;;19.30;99.90;;;;;;5137631;27;20414;-75
2021/06/12 03:55:18;;;;;;;3.70;3.40;;;19.40;99.90;;;;;;5137966;27;20403;-75
2021/06/12 03:57:44;;;;;;;3.88;3.58;;;19.30;99.90;;;;;;5137189;27;20399;-75
2021/06/12 04:00:14;;;;;;;3.65;3.35;;;19.30;99.90;;;;;;5137141;27;20440;-74
2021/06/12 04:02:42;;;;;;;3.55;3.25;;;19.40;99.90;;;;;;5137466;27;20417;-75
2021/06/12 04:05:09;;;;;;;3.70;3.50;;;19.40;99.90;;;;;;5137082;27;20505;-74
2021/06/12 04:07:38;;;;;;;3.42;3.22;;;19.40;99.90;;;;;;5137542;27;20448;-74
2021/06/12 04:10:05;;;;;;;3.70;3.40;;;19.40;99.90;;;;;;5137262;27;20395;-73
2021/06/12 04:12:32;;;;;;;3.90;3.60;;;19.40;99.90;;;;;;5137758;27;20446;-74
2021/06/12 04:14:59;;;;;;;3.63;3.40;;;19.40;99.90;;;;;;5137112;27;20880;-74
2021/06/12 04:17:26;;;;;;;4.47;4.10;;;19.50;99.90;;;;;;5136077;27;20422;-74
2021/06/12 04:19:54;;;;;;;3.97;3.63;;;19.50;99.90;;;;;;5136594;27;20802;-74
2021/06/12 04:22:20;;;;;;;3.80;3.50;;;19.50;99.90;;;;;;5137354;27;20418;-74
2021/06/12 04:24:47;;;;;;;3.30;3.00;;;19.40;99.90;;;;;;5137123;27;20427;-75
2021/06/12 04:27:13;;;;;;;3.23;3.03;;;19.40;99.90;;;;;;5136674;28;20834;-74
2021/06/12 04:29:40;;;;;;;3.95;3.58;;;19.50;99.90;;;;;;5137520;28;20438;-74
2021/06/12 04:32:07;;;;;;;3.97;3.67;;;19.50;99.90;;;;;;5137163;27;20459;-74
2021/06/12 04:34:33;;;;;;;4.38;4.00;;;19.60;99.90;;;;;;5136915;28;20837;-75
2021/06/12 04:37:02;;;;;;;4.28;3.97;;;19.60;99.90;;;;;;5134809;28;20869;-74
2021/06/12 04:39:29;;;;;;;4.40;4.10;;;19.60;99.90;;;;;;5116277;28;20480;-74
2021/06/12 04:41:55;;;;;;;4.15;3.85;;;19.50;99.90;;;;;;5126146;27;20448;-74
2021/06/12 04:44:22;;;;;;;3.85;3.55;;;19.50;99.90;;;;;;5146972;27;20438;-74
2021/06/12 04:46:48;;;;;;;4.03;3.72;;;19.40;99.90;;;;;;5153010;27;20813;-75
2021/06/12 04:49:15;;;;;;;4.00;3.60;;;19.40;99.90;;;;;;5142764;27;20437;-75
2021/06/12 04:51:44;;;;;;;3.73;3.43;;;19.40;99.90;;;;;;5148719;27;20471;-75
2021/06/12 04:54:11;;;;;;;4.88;4.57;;;19.60;99.90;;;;;;5137355;28;20430;-74
2021/06/12 04:56:38;;;;;;;4.57;4.28;;;19.60;99.90;;;;;;5139290;27;20702;-75
2021/06/12 04:59:05;;;;;;;4.27;3.87;;;19.50;99.90;;;;;;5154525;27;20459;-75
2021/06/12 05:01:31;;;;;;;4.18;3.88;;;19.50;99.90;;;;;;5136890;28;20808;-76
2021/06/12 05:03:58;;;;;;;4.10;3.70;;;19.40;99.90;;;;;;5136544;28;20423;-75
2021/06/12 05:06:25;;;;;;;4.22;3.83;;;19.20;99.90;;;;;;5135424;28;20427;-74
2021/06/12 05:08:51;;;;;;;3.90;3.60;;;19.20;99.90;;;;;;5137199;27;20853;-75
2021/06/12 05:11:19;;;;;;;5.17;4.77;;;19.30;99.90;;;;;;5140515;27;20402;-75
2021/06/12 05:13:46;;;;;;;4.30;4.00;;;19.30;99.90;;;;;;5140252;27;20422;-74
2021/06/12 05:16:12;;;;;;;5.18;4.78;;;19.40;99.90;;;;;;5140157;27;20967;-75
2021/06/12 05:18:41;;;;;;;4.47;4.10;;;19.60;99.90;;;;;;5139831;27;20490;-75
2021/06/12 05:21:08;;;;;;;4.57;4.27;;;19.70;99.90;;;;;;5140766;27;20422;-75
2021/06/12 05:23:35;;;;;;;5.30;4.90;;;19.80;99.90;;;;;;5140504;27;20454;-75
2021/06/12 05:26:04;;;;;;;5.00;4.60;;;19.90;99.90;;;;;;5146567;27;20546;-76
2021/06/12 05:28:32;;;;;;;5.20;4.90;;;19.80;99.90;;;;;;5143351;27;20434;-76
2021/06/12 05:30:59;;;;;;;5.70;5.30;;;19.80;99.90;;;;;;5143151;27;20426;-76
2021/06/12 05:33:27;;;;;;;4.20;3.90;;;19.80;99.90;;;;;;5156539;27;20428;-75
2021/06/12 05:35:56;;;;;;;3.70;3.38;;;19.80;99.90;;;;;;5139818;27;20419;-74
2021/06/12 05:38:22;;;;;;;4.10;3.80;;;20.00;99.90;;;;;;5139765;27;20970;-75
2021/06/12 05:40:49;;;;;;;4.47;4.18;;;20.10;99.90;;;;;;5153450;27;20417;-75
2021/06/12 05:43:15;;;;;;;3.80;3.50;;;20.30;99.90;;;;;;5160948;27;20444;-74
2021/06/12 05:45:44;;;;;;;4.18;3.88;;;20.30;99.90;;;;;;5160841;27;20421;-74
2021/06/12 05:48:13;;;;;;;3.83;3.53;;;20.30;99.90;;;;;;5161258;27;20836;-75
2021/06/12 05:50:40;;;;;;;4.25;3.95;;;20.40;99.90;;;;;;5161679;27;20847;-75
2021/06/12 05:53:06;;;;;;;3.70;3.40;;;20.50;99.90;;;;;;5161045;27;20485;-74
2021/06/12 05:55:33;;;;;;;4.03;3.80;;;20.60;99.90;;;;;;5161477;27;20409;-75
2021/06/12 05:58:00;;;;;;;3.80;3.40;;;20.60;99.90;;;;;;5161043;27;20828;-75
2021/06/12 06:00:27;;;;;;;3.75;3.30;;;20.60;99.90;;;;;;5160739;27;20405;-75
2021/06/12 06:02:55;;;;;;;3.67;3.30;;;20.70;99.90;;;;;;5161067;27;20424;-75
2021/06/12 06:05:22;;;;;;;3.40;3.10;;;20.80;99.90;;;;;;5161097;27;20851;-75
2021/06/12 06:07:48;;;;;;;3.60;3.30;;;20.90;99.90;;;;;;5153096;27;20434;-76
2021/06/12 06:10:15;;;;;;;3.40;3.10;;;21.00;99.90;;;;;;5140795;27;20426;-75
2021/06/12 06:12:42;;;;;;;4.18;3.88;;;20.90;99.90;;;;;;5143092;27;20418;-75
2021/06/12 06:15:10;;;;;;;3.65;3.35;;;21.00;99.90;;;;;;5140407;27;20423;-75
2021/06/12 06:17:37;;;;;;;3.80;3.50;;;21.00;99.90;;;;;;5140164;27;20464;-75
2021/06/12 06:20:07;;;;;;;4.80;2.70;;;21.10;99.90;;;;;;5139753;27;20438;-75
2021/06/12 06:22:33;;;;;;;3.70;3.50;;;21.20;99.90;;;;;;5119566;27;20737;-75
2021/06/12 06:25:00;;;;;;;3.00;2.80;;;21.30;99.90;;;;;;5139902;27;20417;-74
2021/06/12 06:27:27;;;;;;;3.80;3.50;;;21.30;99.90;;;;;;5148520;27;20415;-74
2021/06/12 06:29:53;;;;;;;3.15;2.95;;;21.40;99.90;;;;;;5137899;27;20419;-74
2021/06/12 06:32:20;;;;;;;3.60;3.30;;;21.50;99.90;;;;;;5138717;27;20475;-75
2021/06/12 06:34:46;;;;;;;2.78;2.58;;;21.60;99.90;;;;;;5158954;27;20425;-74
2021/06/12 06:37:14;;;;;;;2.80;2.60;;;21.60;99.90;;;;;;5159154;27;20493;-74
2021/06/12 06:39:43;;;;;;;2.90;2.60;;;21.70;99.90;;;;;;5139903;27;20423;-74
2021/06/12 06:42:12;;;;;;;2.80;2.60;;;21.80;99.90;;;;;;5136794;27;20764;-74
2021/06/12 06:44:39;;;;;;;3.50;3.30;;;22.00;99.90;;;;;;5137677;27;20460;-74
2021/06/12 06:47:06;;;;;;;3.30;3.00;;;22.10;99.90;;;;;;5137540;27;20818;-74
2021/06/12 06:49:34;;;;;;;2.70;2.50;;;22.20;99.90;;;;;;5137736;27;20438;-74
2021/06/12 06:52:01;;;;;;;2.20;2.00;;;22.30;99.90;;;;;;5138320;27;20854;-75
2021/06/12 06:54:29;;;;;;;3.22;3.03;;;22.20;99.90;;;;;;5139491;27;20415;-73
2021/06/12 06:56:55;;;;;;;3.05;2.85;;;22.40;99.90;;;;;;5159241;27;20469;-75
2021/06/12 06:59:22;;;;;;;2.20;1.83;;;22.50;99.90;;;;;;5159510;27;20417;-75
2021/06/12 07:01:49;;;;;;;2.40;2.13;;;22.70;99.90;;;;;;5159346;27;20487;-76
2021/06/12 07:04:15;;;;;;;2.55;2.22;;;22.90;99.90;;;;;;5153460;27;20426;-75
2021/06/12 07:06:42;;;;;;;2.55;2.35;;;23.10;99.90;;;;;;5138807;27;20713;-75
2021/06/12 07:09:08;;;;;;;2.50;2.30;;;23.20;99.90;;;;;;5137141;27;20430;-75
2021/06/12 07:11:40;;;;;;;2.75;2.55;;;23.20;99.90;;;;;;5137317;27;20410;-77
2021/06/12 07:14:07;;;;;;;2.60;2.40;;;23.30;99.90;;;;;;5138618;27;20437;-75
2021/06/12 07:16:33;;;;;;;2.30;1.60;;;23.40;99.90;;;;;;5137382;27;20450;-77
2021/06/12 07:19:00;;;;;;;2.78;2.58;;;23.40;99.90;;;;;;5138134;27;20744;-75
2021/06/12 07:21:26;;;;;;;2.50;1.90;;;23.50;99.90;;;;;;5138199;27;20419;-76
2021/06/12 07:23:53;;;;;;;2.40;1.93;;;23.60;99.90;;;;;;5140204;27;20747;-75
2021/06/12 07:26:21;;;;;;;2.30;1.77;;;23.60;99.90;;;;;;5143811;27;20434;-76
2021/06/12 07:28:50;;;;;;;1.95;1.85;;;23.60;99.90;;;;;;5137502;27;20553;-75
2021/06/12 07:31:17;;;;;;;1.80;1.70;;;23.70;99.90;;;;;;5136914;27;20418;-76
2021/06/12 07:33:43;;;;;;;1.80;1.60;;;23.80;99.90;;;;;;5117362;28;20431;-76
2021/06/12 07:36:10;;;;;;;2.90;1.70;;;23.80;99.90;;;;;;5119163;28;20847;-77
2021/06/12 07:38:36;;;;;;;1.50;1.40;;;23.90;99.90;;;;;;5118484;28;20500;-76
2021/06/12 07:41:03;;;;;;;2.40;1.60;;;24.00;99.90;;;;;;5118143;28;20416;-76
2021/06/12 07:43:32;;;;;;;1.80;1.40;;;24.20;99.90;;;;;;5117729;28;20846;-76
2021/06/12 07:46:01;;;;;;;1.30;1.20;;;24.40;99.90;;;;;;5117499;28;20431;-76
2021/06/12 07:48:29;;;;;;;1.70;1.30;;;24.50;99.90;;;;;;5118578;28;20873;-76
2021/06/12 07:50:55;;;;;;;1.70;1.25;;;24.70;99.90;;;;;;5118858;28;20827;-76
2021/06/12 07:53:22;;;;;;;1.40;1.30;;;24.80;99.90;;;;;;5117840;28;20412;-76
2021/06/12 07:55:49;;;;;;;1.60;1.40;;;24.90;99.90;;;;;;5118266;28;20443;-76
2021/06/12 07:58:15;;;;;;;2.20;1.73;;;24.90;99.90;;;;;;5116011;28;20424;-76
2021/06/12 08:00:41;;;;;;;1.98;1.70;;;24.90;99.90;;;;;;5117276;28;20755;-77
2021/06/12 08:03:10;;;;;;;1.83;1.70;;;25.10;99.90;;;;;;5120706;27;20426;-75
2021/06/12 08:05:36;;;;;;;2.65;2.13;;;25.20;99.90;;;;;;5122565;27;20433;-75
2021/06/12 08:08:03;;;;;;;2.10;1.90;;;25.40;99.90;;;;;;5117769;28;20859;-75
2021/06/12 08:10:30;;;;;;;2.37;2.00;;;25.50;99.90;;;;;;5119486;28;20419;-75
2021/06/12 08:12:57;;;;;;;1.85;1.75;;;25.80;99.90;;;;;;5116894;28;20428;-76
2021/06/12 08:15:24;;;;;;;2.60;2.40;;;26.00;99.90;;;;;;5117082;28;20934;-75
2021/06/12 08:17:51;;;;;;;1.90;1.70;;;25.90;99.90;;;;;;5119112;28;20907;-73
2021/06/12 08:20:19;;;;;;;2.13;1.90;;;25.80;99.90;;;;;;5116419;28;20428;-74
2021/06/12 08:22:45;;;;;;;2.70;2.15;;;25.90;99.90;;;;;;5117894;28;20425;-74
2021/06/12 08:25:12;;;;;;;2.30;1.80;;;25.90;99.90;;;;;;5117497;28;20454;-74
2021/06/12 08:27:39;;;;;;;2.13;1.92;;;26.00;99.90;;;;;;5116978;28;20482;-75
2021/06/12 08:30:08;;;;;;;1.55;1.40;;;26.00;99.90;;;;;;5118221;28;20429;-75
2021/06/12 08:32:35;;;;;;;1.40;1.30;;;25.90;99.90;;;;;;5128912;28;20423;-75
2021/06/12 08:35:02;;;;;;;3.38;1.33;;;26.10;99.90;;;;;;5108865;28;20491;-74
2021/06/12 08:37:30;;;;;;;1.30;1.10;;;25.80;99.90;;;;;;5096988;28;20729;-74
2021/06/12 08:39:56;;;;;;;1.10;1.00;;;25.70;99.90;;;;;;5107174;28;20505;-73
2021/06/12 08:42:23;;;;;;;1.27;1.10;;;25.80;99.90;;;;;;5116056;28;20507;-74
2021/06/12 08:44:52;;;;;;;1.30;1.20;;;26.00;99.90;;;;;;5119167;28;20416;-75
2021/06/12 08:47:19;;;;;;;3.00;1.40;;;26.20;99.90;;;;;;5120165;28;20564;-75
2021/06/12 08:49:48;;;;;;;1.70;1.60;;;26.40;99.90;;;;;;5120800;28;20451;-76
2021/06/12 08:52:15;;;;;;;1.67;1.50;;;26.60;99.90;;;;;;5104184;28;20421;-74
2021/06/12 08:54:43;;;;;;;2.13;1.40;;;26.80;99.90;;;;;;5107584;28;20751;-74
2021/06/12 08:57:13;;;;;;;1.70;1.60;;;26.80;99.90;;;;;;5109223;28;20425;-74
2021/06/12 08:59:40;;;;;;;1.63;1.53;;;26.60;99.90;;;;;;5100576;28;20424;-75
2021/06/12 09:02:07;;;;;;;1.60;1.40;;;26.50;99.90;;;;;;5117249;28;20444;-74
2021/06/12 09:04:37;;;;;;;1.90;1.50;;;26.30;99.90;;;;;;5117889;28;21095;-75
2021/06/12 09:07:20;;;;;;;1.30;1.20;;;26.20;99.90;;;;;;5118811;28;20424;-76
2021/06/12 09:09:49;;;;;;;1.30;1.20;;;26.20;99.90;;;;;;5106182;28;20896;-75
2021/06/12 09:12:16;;;;;;;1.40;1.05;;;26.30;99.90;;;;;;5113195;27;20420;-74
2021/06/12 09:14:43;;;;;;;1.48;1.20;;;26.50;99.90;;;;;;5113267;27;20420;-80
2021/06/12 09:17:10;;;;;;;1.80;1.00;;;26.60;99.90;;;;;;5119340;27;20408;-75
2021/06/12 09:19:41;;;;;;;1.10;0.98;;;26.80;99.90;;;;;;5111392;28;20433;-74
2021/06/12 09:22:10;;;;;;;0.90;0.80;;;26.80;99.90;;;;;;5109606;28;20420;-75
2021/06/12 09:24:42;;;;;;;1.08;0.70;;;26.80;99.90;;;;;;5103855;28;20838;-75
2021/06/12 09:27:16;;;;;;;0.90;0.70;;;26.90;99.90;;;;;;5103193;28;20446;-76
2021/06/12 09:29:47;;;;;;;0.73;0.60;;;26.80;99.90;;;;;;5104144;28;20429;-73
2021/06/12 09:32:15;;;;;;;0.77;0.60;;;26.80;99.90;;;;;;5123790;28;20429;-73
2021/06/12 09:34:43;;;;;;;0.80;0.60;;;26.80;99.90;;;;;;5134657;27;20845;-73
2021/06/12 09:37:11;;;;;;;1.60;0.70;;;26.70;99.90;;;;;;5124383;28;20418;-76
2021/06/12 09:39:38;;;;;;;0.80;0.60;;;26.90;99.90;;;;;;5122483;28;20475;-73
2021/06/12 09:42:05;;;;;;;0.70;0.60;;;26.90;99.90;;;;;;5133637;28;20905;-74
2021/06/12 09:44:35;;;;;;;0.80;0.60;;;27.10;99.90;;;;;;5138420;28;20419;-76
2021/06/12 09:47:05;;;;;;;0.80;0.60;;;27.20;99.90;;;;;;5140735;28;20457;-75
2021/06/12 09:49:34;;;;;;;0.70;0.60;;;27.30;99.90;;;;;;5118222;28;20511;-75
2021/06/12 09:52:04;;;;;;;0.88;0.63;;;27.20;99.90;;;;;;5123742;28;20424;-78
2021/06/12 09:54:39;;;;;;;0.80;0.60;;;27.50;99.90;;;;;;5123040;28;20430;-75
2021/06/12 09:57:07;;;;;;;1.25;0.60;;;27.30;99.90;;;;;;5138584;28;20422;-76
2021/06/12 09:59:44;;;;;;;0.80;0.60;;;27.40;99.90;;;;;;5135914;28;20537;-78
2021/06/12 10:02:12;;;;;;;1.00;0.60;;;27.70;99.90;;;;;;5128925;28;20419;-79
2021/06/12 10:04:57;;;;;;;1.08;0.60;;;27.90;99.90;;;;;;5133383;28;20422;-80
2021/06/12 10:07:25;;;;;;;0.70;0.50;;;28.00;99.90;;;;;;5128898;28;20437;-77
2021/06/12 10:09:53;;;;;;;1.70;0.60;;;27.90;99.90;;;;;;5124155;28;20426;-80
2021/06/12 10:12:20;;;;;;;0.70;0.60;;;27.70;99.90;;;;;;5126538;28;20530;-78
2021/06/12 10:14:51;;;;;;;0.65;0.60;;;27.90;99.90;;;;;;5118913;28;20417;-78
2021/06/12 10:17:20;;;;;;;0.70;0.53;;;28.10;99.90;;;;;;5131873;28;20433;-78
2021/06/12 10:19:50;;;;;;;0.60;0.50;;;28.30;99.90;;;;;;5133887;28;20415;-77
2021/06/12 10:22:20;;;;;;;0.70;0.50;;;28.50;99.90;;;;;;5120776;28;20432;-77
2021/06/12 10:24:47;;;;;;;0.80;0.60;;;28.70;99.90;;;;;;5120156;28;20516;-76
2021/06/12 10:27:18;;;;;;;1.00;0.50;;;28.90;99.90;;;;;;5131224;28;20423;-76
2021/06/12 10:29:52;;;;;;;0.80;0.60;;;28.70;99.90;;;;;;5140730;28;20751;-79
2021/06/12 10:33:56;;;;;;;0.70;0.60;;;28.70;99.90;;;;;;5151952;27;20526;-59
2021/06/12 10:36:24;;;;;;;0.85;0.60;;;29.20;99.90;;;;;;5150214;27;20844;-59
2021/06/12 10:38:52;;;;;;;0.70;0.50;;;29.20;99.90;;;;;;5149735;27;20418;-59
2021/06/12 10:41:22;;;;;;;0.70;0.60;;;29.10;99.90;;;;;;5148970;27;20421;-59
2021/06/12 10:43:53;;;;;;;1.55;0.60;;;29.20;99.90;;;;;;5150641;27;20997;-59
2021/06/12 10:46:23;;;;;;;3.00;0.70;;;29.30;99.90;;;;;;5150995;27;20482;-59
2021/06/12 10:48:52;;;;;;;0.80;0.60;;;29.20;99.90;;;;;;5148973;27;20417;-60
2021/06/12 10:51:45;;;;;;;0.90;0.70;;;28.70;99.90;;;;;;5148177;27;20898;-59
2021/06/12 10:54:26;;;;;;;1.43;0.60;;;28.80;99.90;;;;;;5146711;27;20891;-59
2021/06/12 10:56:55;;;;;;;0.80;0.60;;;29.20;99.90;;;;;;5147345;27;20456;-59
2021/06/12 10:59:47;;;;;;;0.80;0.63;;;29.70;99.90;;;;;;5148131;27;20446;-60
2021/06/12 11:02:20;;;;;;;3.35;0.70;;;29.70;99.90;;;;;;5140001;27;20556;-60
2021/06/12 11:04:52;;;;;;;0.95;0.60;;;30.00;99.90;;;;;;5144429;27;20725;-59
2021/06/12 11:07:27;;;;;;;1.10;0.68;;;30.10;99.90;;;;;;5148256;27;20425;-62
2021/06/12 11:09:55;;;;;;;1.30;0.60;;;30.00;99.90;;;;;;5149525;27;20432;-59
2021/06/12 11:12:35;;;;;;;2.30;0.70;;;30.30;99.90;;;;;;5148680;27;20430;-61
2021/06/12 11:15:08;;;;;;;1.20;0.70;;;30.00;99.90;;;;;;5144301;27;20421;-60
2021/06/12 11:17:35;;;;;;;1.13;0.70;;;30.20;99.90;;;;;;5148125;27;20852;-61
2021/06/12 11:20:29;;;;;;;0.90;0.70;;;30.70;99.90;;;;;;5148390;27;20993;-59
2021/06/12 11:23:01;;;;;;;0.90;0.70;;;31.40;99.90;;;;;;5147579;27;20456;-61
2021/06/12 11:25:58;;;;;;;1.35;0.73;;;31.50;99.90;;;;;;5146443;27;20501;-61
2021/06/12 11:28:36;;;;;;;1.30;0.70;;;31.30;99.90;;;;;;5054507;28;20451;-63
2021/06/12 11:31:28;;;;;;;0.90;0.70;;;31.30;99.90;;;;;;5133401;27;20425;-60
2021/06/12 11:34:21;;;;;;;0.80;0.70;;;31.50;99.90;;;;;;5149289;27;20426;-60
2021/06/12 11:36:50;;;;;;;0.70;0.60;;;30.70;99.90;;;;;;5148666;27;20434;-61
2021/06/12 11:39:18;;;;;;;0.90;0.70;;;31.10;99.90;;;;;;5149777;27;20865;-61
2021/06/12 11:41:45;;;;;;;1.13;0.70;;;31.20;99.90;;;;;;5149592;27;20461;-61
2021/06/12 11:44:11;;;;;;;0.80;0.67;;;31.40;99.90;;;;;;5142198;27;20516;-61
2021/06/12 11:46:42;;;;;;;1.00;0.60;;;31.30;99.20;;;;;;5135513;27;20426;-64
2021/06/12 11:49:11;;;;;;;0.90;0.60;;;30.80;97.90;;;;;;5125114;27;20940;-64
2021/06/12 11:51:41;;;;;;;0.85;0.60;;;30.60;97.60;;;;;;5131939;27;20422;-63
2021/06/12 11:54:13;;;;;;;0.80;0.60;;;30.50;97.80;;;;;;5129383;27;20434;-62
2021/06/12 11:56:43;;;;;;;1.70;0.60;;;30.30;98.80;;;;;;5135295;27;20808;-62
2021/06/12 11:59:11;;;;;;;0.95;0.60;;;30.40;98.10;;;;;;5135333;27;20430;-61
2021/06/12 12:01:43;;;;;;;0.80;0.60;;;30.00;98.90;;;;;;5123998;27;20431;-61
2021/06/12 12:04:13;;;;;;;1.00;0.60;;;30.30;99.10;;;;;;5118636;27;20455;-62
2021/06/12 12:06:45;;;;;;;1.30;0.60;;;30.30;97.90;;;;;;5124015;27;20538;-63
2021/06/12 12:09:21;;;;;;;0.70;0.50;;;30.10;97.00;;;;;;5134482;27;20517;-62
2021/06/12 12:11:50;;;;;;;0.80;0.60;;;30.60;95.90;;;;;;5121665;27;20422;-65
2021/06/12 12:14:18;;;;;;;1.30;0.50;;;30.90;95.90;;;;;;5135703;27;20524;-62
2021/06/12 12:16:45;;;;;;;1.13;0.50;;;31.30;93.90;;;;;;5131686;27;20428;-65
2021/06/12 12:19:12;;;;;;;0.60;0.50;;;30.80;94.90;;;;;;5145577;27;20434;-65
2021/06/12 12:21:41;;;;;;;0.70;0.50;;;30.90;95.20;;;;;;5133835;27;20529;-62
2021/06/12 12:24:09;;;;;;;0.70;0.50;;;30.80;95.00;;;;;;5129840;27;20857;-61
2021/06/12 12:26:37;;;;;;;0.70;0.50;;;30.80;95.50;;;;;;5140173;27;20467;-62
2021/06/12 12:29:10;;;;;;;0.60;0.40;;;30.60;95.50;;;;;;5125178;27;20980;-62
2021/06/12 12:31:42;;;;;;;0.68;0.50;;;30.60;95.00;;;;;;5126717;27;20436;-61
2021/06/12 12:34:09;;;;;;;0.60;0.50;;;30.90;93.70;;;;;;5127374;27;20708;-63
2021/06/12 12:36:42;;;;;;;0.60;0.40;;;30.70;93.70;;;;;;5131616;27;20472;-61
2021/06/12 12:39:09;;;;;;;0.60;0.50;;;31.00;93.40;;;;;;5123526;27;20526;-63
2021/06/12 12:41:36;;;;;;;0.60;0.50;;;31.30;92.70;;;;;;5127760;27;20433;-65
2021/06/12 12:44:12;;;;;;;1.50;0.50;;;31.30;92.00;;;;;;5127249;27;21089;-64
2021/06/12 12:46:40;;;;;;;0.60;0.50;;;30.80;91.30;;;;;;5131126;27;20414;-63
2021/06/12 12:49:07;;;;;;;0.80;0.50;;;30.80;91.70;;;;;;5156838;27;20511;-64
2021/06/12 12:51:34;;;;;;;0.70;0.40;;;31.00;91.10;;;;;;5149777;27;20456;-63
2021/06/12 12:54:15;;;;;;;1.10;0.80;;;31.20;91.30;;;;;;5126461;27;20458;-64
2021/06/12 12:56:47;;;;;;;0.90;0.50;;;31.60;90.70;;;;;;5127461;27;20422;-62
2021/06/12 12:59:33;;;;;;;0.60;0.40;;;31.60;90.30;;;;;;5127049;27;20518;-68